GCLA/SPC METAR and TAF weather

Enter ICAO airport designator
Station Type Date Time Source
GCLA METAR 2020/09/23 03:30 UTC NOAA

GCLA 230330Z AUTO 31003KT 270V350 CAVOK 24/19 Q1015


Station Type Date Time Source
GCLA Decoded METAR 2020/09/23 03:30 UTC NOAA

La Palma / Aeropuerto, Spain (GCLA) 28-37N 017-45W 31M
Sep 22, 2020 - 11:30 PM EDT / 2020.09.23 0330 UTC
Wind: from the NW (310 degrees) at 3 MPH (3 KT) (direction variable):0
Visibility: greater than 7 mile(s):0
Temperature: 75 F (24 C)
Dew Point: 66 F (19 C)
Relative Humidity: 73%
Pressure (altimeter): 29.97 in. Hg (1015 hPa)
ob: GCLA 230330Z AUTO 31003KT 270V350 CAVOK 24/19 Q1015
cycle: 3

Station Type Date Time Source
GCLA TAF 2020/09/23 03:27 UTC NOAA

TAF GCLA 230200Z 2303/2403 30007KT 9999 FEW020 TX27/2314Z TN23/2306Z

Example: see airport list